首页
METAR-TAF:

METAR-TAF

机场 :

Beckley, 西維吉尼亞州, 美国

纬度: 37-47-42N, 经度: 081-07-29W, 海拔: 763米

当前天气观测

该预报发布于16分钟前的17:07 UTC
风速6节,风向多变
温度 29°C
湿度 52%
气压 1023 hPa
能見度: 16.1公里
少量云层高于5000英尺
多云层高于7000英尺

METAR: KBKW 201707Z AUTO VRB06KT 10SM FEW050 BKN070 29/18 A3020 RMK AO2 LTG DSNT SE AND S CIG 047 RWY19 T02940178

时间: 13:23 (17:23 UTC)

预报

该预报发布于2小时和24分钟前的14:59 UTC
预报有效从20日的 15点(UTC)到 21日的 12点(UTC)
风速3节,风向多变
能見度: 10公里
天空无云
从 20日的 2100点(UTC)
风速5节,风向南转西南
能見度: 10公里
少量云层高于6000英尺, 积雨云.
附近有雷暴
从 21日的 0200点(UTC)
风速5节,风向
能見度: 10公里
散云层高于5000英尺
从 21日的 1100点(UTC)
风速5节,风向南转西南
能見度: 10公里
多云层高于4000英尺

TAF: KBKW 201459Z 2015/2112 VRB03KT P6SM SKC FM202100 21005KT P6SM VCTS FEW060CB FM210200 18005KT P6SM SCT050 FM211100 21005KT P6SM BKN040

超过4000个机场的气象观测和天气预报(METAR&TAF报告)。

可查询的气象台以黄色和红色小点在地图上表示。

将鼠标移到小点上方,可查看气象台名称。

然后点击查看天气观测和预报。

如需切换地图:点击带黑十字的绿色按钮放大地图;点击带横线的绿色按钮缩小地图;或者点击绿色箭头查看邻近地区的地图。


METAR-TAF: